sensor_id;sensor_type;location;lat;lon;timestamp;temperature;humidity
14057;DHT22;7103;54.300;10.180;2022-12-15T00:01:59;-3.40;1.00
14057;DHT22;7103;54.300;10.180;2022-12-15T00:04:45;-3.40;1.00
14057;DHT22;7103;54.300;10.180;2022-12-15T00:07:30;-3.40;1.00
14057;DHT22;7103;54.300;10.180;2022-12-15T00:10:17;-3.40;1.00
14057;DHT22;7103;54.300;10.180;2022-12-15T00:13:09;-3.50;1.00
14057;DHT22;7103;54.300;10.180;2022-12-15T00:15:55;-3.60;1.00
14057;DHT22;7103;54.300;10.180;2022-12-15T00:18:41;-3.50;1.00
14057;DHT22;7103;54.300;10.180;2022-12-15T00:21:26;-3.60;1.00
14057;DHT22;7103;54.300;10.180;2022-12-15T00:24:12;-3.70;1.00
14057;DHT22;7103;54.300;10.180;2022-12-15T00:26:57;-3.70;1.00
14057;DHT22;7103;54.300;10.180;2022-12-15T00:29:43;-3.60;1.00
14057;DHT22;7103;54.300;10.180;2022-12-15T00:32:28;-3.70;1.00
14057;DHT22;7103;54.300;10.180;2022-12-15T00:35:13;-3.80;1.00
14057;DHT22;7103;54.300;10.180;2022-12-15T00:38:09;-3.80;1.00
14057;DHT22;7103;54.300;10.180;2022-12-15T00:40:55;-3.90;1.00
14057;DHT22;7103;54.300;10.180;2022-12-15T00:43:29;-3.80;1.00
14057;DHT22;7103;54.300;10.180;2022-12-15T00:45:58;-3.80;1.00
14057;DHT22;7103;54.300;10.180;2022-12-15T00:48:44;-3.80;1.00
14057;DHT22;7103;54.300;10.180;2022-12-15T00:51:11;-3.80;1.00
14057;DHT22;7103;54.300;10.180;2022-12-15T00:53:39;-3.80;1.00
14057;DHT22;7103;54.300;10.180;2022-12-15T00:56:24;-3.70;1.00
14057;DHT22;7103;54.300;10.180;2022-12-15T00:59:10;-3.70;1.00
14057;DHT22;7103;54.300;10.180;2022-12-15T01:01:56;-3.70;1.00
14057;DHT22;7103;54.300;10.180;2022-12-15T01:04:42;-3.80;1.00
14057;DHT22;7103;54.300;10.180;2022-12-15T01:07:28;-3.80;1.00
14057;DHT22;7103;54.300;10.180;2022-12-15T01:10:16;-3.80;1.00
14057;DHT22;7103;54.300;10.180;2022-12-15T01:13:03;-3.90;1.00
14057;DHT22;7103;54.300;10.180;2022-12-15T01:15:49;-3.80;1.00
14057;DHT22;7103;54.300;10.180;2022-12-15T01:18:34;-3.90;1.00
14057;DHT22;7103;54.300;10.180;2022-12-15T01:21:20;-3.80;1.00
14057;DHT22;7103;54.300;10.180;2022-12-15T01:23:51;-3.70;1.00
14057;DHT22;7103;54.300;10.180;2022-12-15T01:26:18;-3.70;1.00
14057;DHT22;7103;54.300;10.180;2022-12-15T01:28:45;-3.70;1.00
14057;DHT22;7103;54.300;10.180;2022-12-15T01:31:12;-3.60;1.00
14057;DHT22;7103;54.300;10.180;2022-12-15T01:33:39;-3.60;1.00
14057;DHT22;7103;54.300;10.180;2022-12-15T01:36:08;-3.70;1.00
14057;DHT22;7103;54.300;10.180;2022-12-15T01:38:36;-3.70;1.00
14057;DHT22;7103;54.300;10.180;2022-12-15T01:41:06;-3.70;1.00
14057;DHT22;7103;54.300;10.180;2022-12-15T01:43:35;-3.60;1.00
14057;DHT22;7103;54.300;10.180;2022-12-15T01:46:08;-3.60;1.00
14057;DHT22;7103;54.300;10.180;2022-12-15T01:48:59;-3.60;1.00
14057;DHT22;7103;54.300;10.180;2022-12-15T01:56:33;-3.40;1.00
14057;DHT22;7103;54.300;10.180;2022-12-15T01:59:06;-3.40;1.00
14057;DHT22;7103;54.300;10.180;2022-12-15T02:01:33;-3.40;1.00
14057;DHT22;7103;54.300;10.180;2022-12-15T02:04:01;-3.50;1.00
14057;DHT22;7103;54.300;10.180;2022-12-15T02:06:28;-3.50;1.00
14057;DHT22;7103;54.300;10.180;2022-12-15T02:08:57;-3.50;1.00
14057;DHT22;7103;54.300;10.180;2022-12-15T02:11:47;-3.50;1.00
14057;DHT22;7103;54.300;10.180;2022-12-15T02:31:11;-3.60;1.00
14057;DHT22;7103;54.300;10.180;2022-12-15T02:39:42;-3.70;1.00
14057;DHT22;7103;54.300;10.180;2022-12-15T02:42:10;-3.80;1.00
14057;DHT22;7103;54.300;10.180;2022-12-15T02:44:52;-3.80;1.00
14057;DHT22;7103;54.300;10.180;2022-12-15T02:55:30;-3.60;1.00
14057;DHT22;7103;54.300;10.180;2022-12-15T02:57:59;-3.60;1.00
14057;DHT22;7103;54.300;10.180;2022-12-15T03:00:29;-3.60;1.00
14057;DHT22;7103;54.300;10.180;2022-12-15T03:02:59;-3.60;1.00
14057;DHT22;7103;54.300;10.180;2022-12-15T03:05:26;-3.50;1.00
14057;DHT22;7103;54.300;10.180;2022-12-15T03:07:53;-3.40;1.00
14057;DHT22;7103;54.300;10.180;2022-12-15T03:10:22;-3.30;1.00
14057;DHT22;7103;54.300;10.180;2022-12-15T03:12:50;-3.30;1.00
14057;DHT22;7103;54.300;10.180;2022-12-15T03:15:18;-3.30;1.00
14057;DHT22;7103;54.300;10.180;2022-12-15T03:17:45;-3.30;1.00
14057;DHT22;7103;54.300;10.180;2022-12-15T03:20:12;-3.30;1.00
14057;DHT22;7103;54.300;10.180;2022-12-15T03:22:39;-3.20;1.00
14057;DHT22;7103;54.300;10.180;2022-12-15T03:25:06;-3.20;2.10
14057;DHT22;7103;54.300;10.180;2022-12-15T03:27:34;-3.20;4.20
14057;DHT22;7103;54.300;10.180;2022-12-15T03:30:01;-3.20;7.70
14057;DHT22;7103;54.300;10.180;2022-12-15T03:32:28;-3.20;6.70
14057;DHT22;7103;54.300;10.180;2022-12-15T03:34:55;-3.20;4.10
14057;DHT22;7103;54.300;10.180;2022-12-15T03:37:22;-3.30;1.00
14057;DHT22;7103;54.300;10.180;2022-12-15T03:39:49;-3.30;3.80
14057;DHT22;7103;54.300;10.180;2022-12-15T03:42:16;-3.30;5.10
14057;DHT22;7103;54.300;10.180;2022-12-15T03:45:03;-3.30;7.30
14057;DHT22;7103;54.300;10.180;2022-12-15T03:47:30;-3.40;2.70
14057;DHT22;7103;54.300;10.180;2022-12-15T03:49:57;-3.50;6.70
14057;DHT22;7103;54.300;10.180;2022-12-15T03:52:24;-3.40;12.90
14057;DHT22;7103;54.300;10.180;2022-12-15T03:54:51;-3.40;13.00
14057;DHT22;7103;54.300;10.180;2022-12-15T03:57:18;-3.30;13.00
14057;DHT22;7103;54.300;10.180;2022-12-15T03:59:45;-3.20;13.20
14057;DHT22;7103;54.300;10.180;2022-12-15T04:02:11;-3.20;13.20
14057;DHT22;7103;54.300;10.180;2022-12-15T04:04:39;-3.30;13.00
14057;DHT22;7103;54.300;10.180;2022-12-15T04:07:05;-3.40;12.90
14057;DHT22;7103;54.300;10.180;2022-12-15T04:09:32;-3.30;13.00
14057;DHT22;7103;54.300;10.180;2022-12-15T04:11:59;-3.40;14.90
14057;DHT22;7103;54.300;10.180;2022-12-15T04:14:29;-3.30;13.00
14057;DHT22;7103;54.300;10.180;2022-12-15T04:16:56;-3.30;13.00
14057;DHT22;7103;54.300;10.180;2022-12-15T04:19:23;-3.30;13.00
14057;DHT22;7103;54.300;10.180;2022-12-15T04:22:09;-3.30;13.10
14057;DHT22;7103;54.300;10.180;2022-12-15T04:24:43;-3.40;12.90
14057;DHT22;7103;54.300;10.180;2022-12-15T04:27:28;-3.30;13.30
14057;DHT22;7103;54.300;10.180;2022-12-15T04:30:14;-3.30;13.10
14057;DHT22;7103;54.300;10.180;2022-12-15T04:33:01;-3.40;13.00
14057;DHT22;7103;54.300;10.180;2022-12-15T04:35:53;-3.40;13.00
14057;DHT22;7103;54.300;10.180;2022-12-15T04:38:39;-3.30;24.60
14057;DHT22;7103;54.300;10.180;2022-12-15T04:41:24;-3.40;19.60
14057;DHT22;7103;54.300;10.180;2022-12-15T04:44:10;-3.40;21.60
14057;DHT22;7103;54.300;10.180;2022-12-15T04:46:56;-3.50;17.70
14057;DHT22;7103;54.300;10.180;2022-12-15T04:49:41;-3.40;27.30
14057;DHT22;7103;54.300;10.180;2022-12-15T04:52:27;-3.50;20.90
14057;DHT22;7103;54.300;10.180;2022-12-15T04:55:12;-3.60;26.50
14057;DHT22;7103;54.300;10.180;2022-12-15T04:58:02;-3.60;36.00
14057;DHT22;7103;54.300;10.180;2022-12-15T05:00:48;-3.50;43.90
14057;DHT22;7103;54.300;10.180;2022-12-15T05:03:33;-3.50;51.20
14057;DHT22;7103;54.300;10.180;2022-12-15T05:06:19;-3.60;50.50
14057;DHT22;7103;54.300;10.180;2022-12-15T05:09:04;-3.60;53.80
14057;DHT22;7103;54.300;10.180;2022-12-15T05:11:49;-3.60;55.70
14057;DHT22;7103;54.300;10.180;2022-12-15T05:14:35;-3.70;51.20
14057;DHT22;7103;54.300;10.180;2022-12-15T05:17:20;-3.70;48.30
14057;DHT22;7103;54.300;10.180;2022-12-15T05:20:07;-3.80;51.60
14057;DHT22;7103;54.300;10.180;2022-12-15T05:22:57;-3.90;52.80
14057;DHT22;7103;54.300;10.180;2022-12-15T05:25:43;-3.90;60.40
14057;DHT22;7103;54.300;10.180;2022-12-15T05:28:28;-3.80;67.60
14057;DHT22;7103;54.300;10.180;2022-12-15T05:31:14;-3.80;67.70
14057;DHT22;7103;54.300;10.180;2022-12-15T05:33:59;-3.90;67.60
14057;DHT22;7103;54.300;10.180;2022-12-15T05:36:31;-3.90;67.70
14057;DHT22;7103;54.300;10.180;2022-12-15T05:38:58;-3.90;67.60
14057;DHT22;7103;54.300;10.180;2022-12-15T05:41:25;-3.90;67.60
14057;DHT22;7103;54.300;10.180;2022-12-15T05:43:52;-4.10;67.50
14057;DHT22;7103;54.300;10.180;2022-12-15T05:46:19;-4.10;67.40
14057;DHT22;7103;54.300;10.180;2022-12-15T05:48:46;-4.20;67.40
14057;DHT22;7103;54.300;10.180;2022-12-15T05:51:13;-4.20;75.10
14057;DHT22;7103;54.300;10.180;2022-12-15T05:53:40;-4.20;76.00
14057;DHT22;7103;54.300;10.180;2022-12-15T05:56:10;-4.20;76.60
14057;DHT22;7103;54.300;10.180;2022-12-15T05:58:38;-4.20;81.20
14057;DHT22;7103;54.300;10.180;2022-12-15T06:01:15;-4.20;84.40
14057;DHT22;7103;54.300;10.180;2022-12-15T06:03:43;-4.20;85.20
14057;DHT22;7103;54.300;10.180;2022-12-15T06:06:11;-4.20;87.70
14057;DHT22;7103;54.300;10.180;2022-12-15T06:08:39;-4.20;89.10
14057;DHT22;7103;54.300;10.180;2022-12-15T06:11:08;-4.20;90.00
14057;DHT22;7103;54.300;10.180;2022-12-15T06:13:35;-4.20;88.90
14057;DHT22;7103;54.300;10.180;2022-12-15T06:16:06;-4.20;88.00
14057;DHT22;7103;54.300;10.180;2022-12-15T06:18:36;-4.20;89.70
14057;DHT22;7103;54.300;10.180;2022-12-15T06:21:09;-4.20;90.70
14057;DHT22;7103;54.300;10.180;2022-12-15T06:23:37;-4.10;88.00
14057;DHT22;7103;54.300;10.180;2022-12-15T06:26:30;-4.30;79.40
14057;DHT22;7103;54.300;10.180;2022-12-15T06:28:59;-4.40;77.40
14057;DHT22;7103;54.300;10.180;2022-12-15T06:31:29;-4.40;76.40
14057;DHT22;7103;54.300;10.180;2022-12-15T06:33:56;-4.50;76.00
14057;DHT22;7103;54.300;10.180;2022-12-15T06:36:29;-4.40;85.80
14057;DHT22;7103;54.300;10.180;2022-12-15T06:39:01;-4.40;85.60
14057;DHT22;7103;54.300;10.180;2022-12-15T06:41:29;-4.50;85.50
14057;DHT22;7103;54.300;10.180;2022-12-15T06:43:57;-4.60;87.00
14057;DHT22;7103;54.300;10.180;2022-12-15T06:46:25;-4.50;91.70
14057;DHT22;7103;54.300;10.180;2022-12-15T06:48:53;-4.60;91.60
14057;DHT22;7103;54.300;10.180;2022-12-15T06:51:20;-4.60;94.70
14057;DHT22;7103;54.300;10.180;2022-12-15T06:53:47;-4.50;96.90
14057;DHT22;7103;54.300;10.180;2022-12-15T06:56:18;-4.50;99.90
14057;DHT22;7103;54.300;10.180;2022-12-15T06:58:47;-4.50;99.90
14057;DHT22;7103;54.300;10.180;2022-12-15T07:01:14;-4.40;99.90
14057;DHT22;7103;54.300;10.180;2022-12-15T07:03:41;-4.40;99.90
14057;DHT22;7103;54.300;10.180;2022-12-15T07:06:11;-4.30;99.90
14057;DHT22;7103;54.300;10.180;2022-12-15T07:08:39;-4.10;99.90
14057;DHT22;7103;54.300;10.180;2022-12-15T07:11:10;-4.00;99.90
14057;DHT22;7103;54.300;10.180;2022-12-15T07:13:38;-4.00;99.90
14057;DHT22;7103;54.300;10.180;2022-12-15T07:16:06;-4.00;99.90
14057;DHT22;7103;54.300;10.180;2022-12-15T07:18:33;-4.00;99.90
14057;DHT22;7103;54.300;10.180;2022-12-15T07:21:05;-4.00;99.90
14057;DHT22;7103;54.300;10.180;2022-12-15T07:23:33;-4.00;99.90
14057;DHT22;7103;54.300;10.180;2022-12-15T07:26:20;-3.80;99.90
14057;DHT22;7103;54.300;10.180;2022-12-15T07:28:46;-3.70;99.90
14057;DHT22;7103;54.300;10.180;2022-12-15T07:31:13;-3.80;99.90
14057;DHT22;7103;54.300;10.180;2022-12-15T07:33:41;-3.80;99.90
14057;DHT22;7103;54.300;10.180;2022-12-15T07:36:08;-3.70;99.90
14057;DHT22;7103;54.300;10.180;2022-12-15T07:38:36;-3.60;99.90
14057;DHT22;7103;54.300;10.180;2022-12-15T07:41:05;-3.70;99.90
14057;DHT22;7103;54.300;10.180;2022-12-15T07:43:33;-3.70;99.90
14057;DHT22;7103;54.300;10.180;2022-12-15T07:46:02;-3.60;99.90
14057;DHT22;7103;54.300;10.180;2022-12-15T07:48:30;-3.60;99.90
14057;DHT22;7103;54.300;10.180;2022-12-15T07:50:57;-3.60;99.90
14057;DHT22;7103;54.300;10.180;2022-12-15T07:53:34;-3.60;99.90
14057;DHT22;7103;54.300;10.180;2022-12-15T07:56:03;-3.60;99.90
14057;DHT22;7103;54.300;10.180;2022-12-15T07:58:34;-3.40;99.90
14057;DHT22;7103;54.300;10.180;2022-12-15T08:01:04;-3.30;99.90
14057;DHT22;7103;54.300;10.180;2022-12-15T08:03:31;-3.20;99.90
14057;DHT22;7103;54.300;10.180;2022-12-15T08:06:08;-3.20;99.90
14057;DHT22;7103;54.300;10.180;2022-12-15T08:08:36;-3.20;99.90
14057;DHT22;7103;54.300;10.180;2022-12-15T08:11:11;-3.20;99.90
14057;DHT22;7103;54.300;10.180;2022-12-15T08:13:39;-3.20;99.90
14057;DHT22;7103;54.300;10.180;2022-12-15T08:16:27;-3.10;99.90
14057;DHT22;7103;54.300;10.180;2022-12-15T08:18:55;-3.10;99.90
14057;DHT22;7103;54.300;10.180;2022-12-15T08:21:24;-3.00;99.90
14057;DHT22;7103;54.300;10.180;2022-12-15T08:23:51;-3.00;99.90
14057;DHT22;7103;54.300;10.180;2022-12-15T08:26:18;-2.90;99.90
14057;DHT22;7103;54.300;10.180;2022-12-15T08:28:52;-2.80;99.90
14057;DHT22;7103;54.300;10.180;2022-12-15T08:31:21;-2.80;99.90
14057;DHT22;7103;54.300;10.180;2022-12-15T08:33:49;-2.70;99.90
14057;DHT22;7103;54.300;10.180;2022-12-15T08:36:18;-2.70;99.90
14057;DHT22;7103;54.300;10.180;2022-12-15T08:38:45;-2.70;99.90
14057;DHT22;7103;54.300;10.180;2022-12-15T08:41:21;-2.70;99.90
14057;DHT22;7103;54.300;10.180;2022-12-15T08:43:49;-2.70;99.90
14057;DHT22;7103;54.300;10.180;2022-12-15T08:46:18;-2.60;99.90
14057;DHT22;7103;54.300;10.180;2022-12-15T08:48:46;-2.60;99.90
14057;DHT22;7103;54.300;10.180;2022-12-15T08:51:13;-2.60;99.90
14057;DHT22;7103;54.300;10.180;2022-12-15T08:53:40;-2.70;99.90
14057;DHT22;7103;54.300;10.180;2022-12-15T08:56:13;-2.50;99.90
14057;DHT22;7103;54.300;10.180;2022-12-15T08:58:44;-2.50;99.90
14057;DHT22;7103;54.300;10.180;2022-12-15T09:01:20;-2.40;99.90
14057;DHT22;7103;54.300;10.180;2022-12-15T09:03:51;-2.30;99.90
14057;DHT22;7103;54.300;10.180;2022-12-15T09:06:28;-2.30;99.90
14057;DHT22;7103;54.300;10.180;2022-12-15T09:08:58;-2.20;99.90
14057;DHT22;7103;54.300;10.180;2022-12-15T09:11:26;-2.30;99.90
14057;DHT22;7103;54.300;10.180;2022-12-15T09:13:53;-2.20;99.90
14057;DHT22;7103;54.300;10.180;2022-12-15T09:16:20;-2.20;99.90
14057;DHT22;7103;54.300;10.180;2022-12-15T09:18:50;-2.30;99.90
14057;DHT22;7103;54.300;10.180;2022-12-15T09:21:18;-2.20;99.90
14057;DHT22;7103;54.300;10.180;2022-12-15T09:23:49;-2.20;99.90
14057;DHT22;7103;54.300;10.180;2022-12-15T09:26:19;-2.20;99.90
14057;DHT22;7103;54.300;10.180;2022-12-15T09:28:48;-2.30;99.90
14057;DHT22;7103;54.300;10.180;2022-12-15T09:31:21;-2.20;99.90
14057;DHT22;7103;54.300;10.180;2022-12-15T09:33:50;-2.20;99.90
14057;DHT22;7103;54.300;10.180;2022-12-15T09:36:18;-2.10;99.90
14057;DHT22;7103;54.300;10.180;2022-12-15T09:38:45;-1.90;99.90
14057;DHT22;7103;54.300;10.180;2022-12-15T09:49:37;-1.90;99.90
14057;DHT22;7103;54.300;10.180;2022-12-15T09:52:26;-1.80;99.90
14057;DHT22;7103;54.300;10.180;2022-12-15T09:54:54;-1.70;99.90
14057;DHT22;7103;54.300;10.180;2022-12-15T10:00:13;-1.60;99.90
14057;DHT22;7103;54.300;10.180;2022-12-15T10:08:44;-1.30;99.90
14057;DHT22;7103;54.300;10.180;2022-12-15T10:13:53;-1.10;99.90
14057;DHT22;7103;54.300;10.180;2022-12-15T10:21:48;-1.00;99.90
14057;DHT22;7103;54.300;10.180;2022-12-15T10:24:20;-0.90;99.90
14057;DHT22;7103;54.300;10.180;2022-12-15T10:30:14;-0.80;99.90
14057;DHT22;7103;54.300;10.180;2022-12-15T10:35:23;-0.70;99.90
14057;DHT22;7103;54.300;10.180;2022-12-15T10:37:50;-0.60;99.90
14057;DHT22;7103;54.300;10.180;2022-12-15T10:40:19;-0.60;99.90
14057;DHT22;7103;54.300;10.180;2022-12-15T10:42:49;-0.50;99.90
14057;DHT22;7103;54.300;10.180;2022-12-15T10:45:37;-0.50;99.90
14057;DHT22;7103;54.300;10.180;2022-12-15T10:48:04;-0.40;99.90
14057;DHT22;7103;54.300;10.180;2022-12-15T10:50:33;-0.40;99.90
14057;DHT22;7103;54.300;10.180;2022-12-15T10:53:07;-0.30;99.90
14057;DHT22;7103;54.300;10.180;2022-12-15T10:58:20;-0.20;99.90
14057;DHT22;7103;54.300;10.180;2022-12-15T11:01:07;-0.20;99.90
14057;DHT22;7103;54.300;10.180;2022-12-15T11:03:35;-0.10;99.90
14057;DHT22;7103;54.300;10.180;2022-12-15T11:06:13;-0.10;99.90
14057;DHT22;7103;54.300;10.180;2022-12-15T11:08:41;0.00;99.90
14057;DHT22;7103;54.300;10.180;2022-12-15T11:11:29;-0.10;99.90
14057;DHT22;7103;54.300;10.180;2022-12-15T11:14:22;-0.10;99.90
14057;DHT22;7103;54.300;10.180;2022-12-15T11:16:52;-0.10;99.90
14057;DHT22;7103;54.300;10.180;2022-12-15T11:19:25;-0.10;99.90
14057;DHT22;7103;54.300;10.180;2022-12-15T11:21:58;-0.10;99.90
14057;DHT22;7103;54.300;10.180;2022-12-15T11:24:44;-0.10;99.90
14057;DHT22;7103;54.300;10.180;2022-12-15T11:27:54;-0.10;99.90
14057;DHT22;7103;54.300;10.180;2022-12-15T11:30:16;-0.20;99.90
14057;DHT22;7103;54.300;10.180;2022-12-15T11:32:47;-0.20;99.90
14057;DHT22;7103;54.300;10.180;2022-12-15T11:35:22;-0.20;99.90
14057;DHT22;7103;54.300;10.180;2022-12-15T11:37:55;-0.30;99.90
14057;DHT22;7103;54.300;10.180;2022-12-15T11:40:29;-0.30;99.90
14057;DHT22;7103;54.300;10.180;2022-12-15T11:56:46;-0.10;99.90
14057;DHT22;7103;54.300;10.180;2022-12-15T12:07:51;-0.30;99.90
14057;DHT22;7103;54.300;10.180;2022-12-15T12:10:42;-0.30;99.90
14057;DHT22;7103;54.300;10.180;2022-12-15T12:13:29;-0.20;99.90
14057;DHT22;7103;54.300;10.180;2022-12-15T12:18:41;-0.30;99.90
14057;DHT22;7103;54.300;10.180;2022-12-15T12:21:21;-0.30;99.90
14057;DHT22;7103;54.300;10.180;2022-12-15T12:26:46;-0.10;99.90
14057;DHT22;7103;54.300;10.180;2022-12-15T12:35:14;-0.20;99.90
14057;DHT22;7103;54.300;10.180;2022-12-15T12:37:59;-0.30;99.90
14057;DHT22;7103;54.300;10.180;2022-12-15T12:43:52;-0.10;99.90
14057;DHT22;7103;54.300;10.180;2022-12-15T12:46:25;-0.20;99.90
14057;DHT22;7103;54.300;10.180;2022-12-15T12:51:40;-0.20;99.90
14057;DHT22;7103;54.300;10.180;2022-12-15T12:57:00;-0.20;99.90
14057;DHT22;7103;54.300;10.180;2022-12-15T13:01:55;-0.20;99.90
14057;DHT22;7103;54.300;10.180;2022-12-15T13:07:00;-0.20;99.90
14057;DHT22;7103;54.300;10.180;2022-12-15T13:09:41;-0.20;99.90
14057;DHT22;7103;54.300;10.180;2022-12-15T13:12:47;-0.20;99.90
14057;DHT22;7103;54.300;10.180;2022-12-15T13:18:10;0.00;99.90
14057;DHT22;7103;54.300;10.180;2022-12-15T13:20:38;-0.10;99.90
14057;DHT22;7103;54.300;10.180;2022-12-15T13:44:53;-0.20;99.90
14057;DHT22;7103;54.300;10.180;2022-12-15T13:47:28;-0.20;99.90
14057;DHT22;7103;54.300;10.180;2022-12-15T13:50:00;-0.20;99.90
14057;DHT22;7103;54.300;10.180;2022-12-15T13:52:50;-0.20;99.90
14057;DHT22;7103;54.300;10.180;2022-12-15T13:55:39;-0.20;99.90
14057;DHT22;7103;54.300;10.180;2022-12-15T13:58:17;-0.20;99.90
14057;DHT22;7103;54.300;10.180;2022-12-15T14:00:54;-0.20;99.90
14057;DHT22;7103;54.300;10.180;2022-12-15T14:03:22;-0.20;99.90
14057;DHT22;7103;54.300;10.180;2022-12-15T14:05:57;-0.10;99.90
14057;DHT22;7103;54.300;10.180;2022-12-15T14:08:27;-0.10;99.90
14057;DHT22;7103;54.300;10.180;2022-12-15T14:10:57;-0.20;99.90
14057;DHT22;7103;54.300;10.180;2022-12-15T14:13:29;-0.20;99.90
14057;DHT22;7103;54.300;10.180;2022-12-15T14:16:12;-0.10;99.90
14057;DHT22;7103;54.300;10.180;2022-12-15T14:18:43;-0.10;99.90
14057;DHT22;7103;54.300;10.180;2022-12-15T14:21:22;-0.10;99.90
14057;DHT22;7103;54.300;10.180;2022-12-15T14:23:49;-0.10;99.90
14057;DHT22;7103;54.300;10.180;2022-12-15T14:26:36;-0.10;99.90
14057;DHT22;7103;54.300;10.180;2022-12-15T14:29:04;-0.10;99.90
14057;DHT22;7103;54.300;10.180;2022-12-15T14:31:32;-0.10;99.90
14057;DHT22;7103;54.300;10.180;2022-12-15T14:34:10;0.00;99.90
14057;DHT22;7103;54.300;10.180;2022-12-15T14:36:39;0.00;99.90
14057;DHT22;7103;54.300;10.180;2022-12-15T14:39:16;-0.10;99.90
14057;DHT22;7103;54.300;10.180;2022-12-15T14:41:46;-0.10;99.90
14057;DHT22;7103;54.300;10.180;2022-12-15T14:44:36;-0.10;99.90
14057;DHT22;7103;54.300;10.180;2022-12-15T14:47:14;-0.10;99.90
14057;DHT22;7103;54.300;10.180;2022-12-15T14:49:43;-0.10;99.90
14057;DHT22;7103;54.300;10.180;2022-12-15T14:52:29;-0.10;99.90
14057;DHT22;7103;54.300;10.180;2022-12-15T14:55:03;-0.10;99.90
14057;DHT22;7103;54.300;10.180;2022-12-15T14:57:50;-0.10;99.90
14057;DHT22;7103;54.300;10.180;2022-12-15T15:06:02;-0.20;99.90
14057;DHT22;7103;54.300;10.180;2022-12-15T15:08:33;-0.20;99.90
14057;DHT22;7103;54.300;10.180;2022-12-15T15:11:23;-0.10;99.90
14057;DHT22;7103;54.300;10.180;2022-12-15T15:13:57;-0.10;99.90
14057;DHT22;7103;54.300;10.180;2022-12-15T15:16:25;-0.20;99.90
14057;DHT22;7103;54.300;10.180;2022-12-15T15:18:53;-0.10;99.90
14057;DHT22;7103;54.300;10.180;2022-12-15T15:21:32;-0.20;99.90
14057;DHT22;7103;54.300;10.180;2022-12-15T15:24:02;-0.10;99.90
14057;DHT22;7103;54.300;10.180;2022-12-15T15:26:30;-0.20;99.90
14057;DHT22;7103;54.300;10.180;2022-12-15T15:28:57;-0.10;99.90
14057;DHT22;7103;54.300;10.180;2022-12-15T15:33:51;-0.10;99.90
14057;DHT22;7103;54.300;10.180;2022-12-15T15:36:19;-0.20;99.90
14057;DHT22;7103;54.300;10.180;2022-12-15T15:38:49;-0.20;99.90
14057;DHT22;7103;54.300;10.180;2022-12-15T15:41:26;-0.20;99.90
14057;DHT22;7103;54.300;10.180;2022-12-15T15:43:58;-0.20;99.90
14057;DHT22;7103;54.300;10.180;2022-12-15T15:46:27;-0.10;99.90
14057;DHT22;7103;54.300;10.180;2022-12-15T15:49:07;0.00;99.90
14057;DHT22;7103;54.300;10.180;2022-12-15T15:51:35;-0.10;99.90
14057;DHT22;7103;54.300;10.180;2022-12-15T15:54:05;-0.10;99.90
14057;DHT22;7103;54.300;10.180;2022-12-15T15:56:33;-0.10;99.90
14057;DHT22;7103;54.300;10.180;2022-12-15T15:59:15;-0.10;99.90
14057;DHT22;7103;54.300;10.180;2022-12-15T16:01:43;-0.10;99.90
14057;DHT22;7103;54.300;10.180;2022-12-15T16:04:12;0.00;99.90
14057;DHT22;7103;54.300;10.180;2022-12-15T16:06:39;-0.10;99.90
14057;DHT22;7103;54.300;10.180;2022-12-15T16:09:14;0.00;99.90
14057;DHT22;7103;54.300;10.180;2022-12-15T16:11:41;0.00;99.90
14057;DHT22;7103;54.300;10.180;2022-12-15T16:14:11;0.00;99.90
14057;DHT22;7103;54.300;10.180;2022-12-15T16:16:39;0.00;99.90
14057;DHT22;7103;54.300;10.180;2022-12-15T16:19:07;0.00;1.00
14057;DHT22;7103;54.300;10.180;2022-12-15T16:21:34;0.00;1.00
14057;DHT22;7103;54.300;10.180;2022-12-15T16:24:07;-0.10;1.00
14057;DHT22;7103;54.300;10.180;2022-12-15T16:26:36;-0.10;1.00
14057;DHT22;7103;54.300;10.180;2022-12-15T16:29:15;-0.10;1.00
14057;DHT22;7103;54.300;10.180;2022-12-15T16:31:42;-0.10;1.00
14057;DHT22;7103;54.300;10.180;2022-12-15T16:34:12;0.00;1.00
14057;DHT22;7103;54.300;10.180;2022-12-15T16:36:40;0.00;1.00
14057;DHT22;7103;54.300;10.180;2022-12-15T16:39:30;0.20;1.00
14057;DHT22;7103;54.300;10.180;2022-12-15T16:41:58;0.10;1.00
14057;DHT22;7103;54.300;10.180;2022-12-15T16:44:26;0.00;1.00
14057;DHT22;7103;54.300;10.180;2022-12-15T16:46:55;0.00;1.00
14057;DHT22;7103;54.300;10.180;2022-12-15T16:49:23;0.00;1.00
14057;DHT22;7103;54.300;10.180;2022-12-15T16:51:51;-0.10;1.00
14057;DHT22;7103;54.300;10.180;2022-12-15T16:54:22;-0.10;1.00
14057;DHT22;7103;54.300;10.180;2022-12-15T16:56:50;-0.10;1.00
14057;DHT22;7103;54.300;10.180;2022-12-15T16:59:20;-0.10;1.00
14057;DHT22;7103;54.300;10.180;2022-12-15T17:02:22;0.00;1.00
14057;DHT22;7103;54.300;10.180;2022-12-15T17:04:54;0.10;1.00
14057;DHT22;7103;54.300;10.180;2022-12-15T17:07:23;0.10;1.00
14057;DHT22;7103;54.300;10.180;2022-12-15T17:09:51;0.10;1.00
14057;DHT22;7103;54.300;10.180;2022-12-15T17:12:18;0.40;1.00
14057;DHT22;7103;54.300;10.180;2022-12-15T17:14:45;0.60;1.00
14057;DHT22;7103;54.300;10.180;2022-12-15T17:17:16;0.70;1.00
14057;DHT22;7103;54.300;10.180;2022-12-15T17:19:44;0.60;1.00
14057;DHT22;7103;54.300;10.180;2022-12-15T17:22:31;0.60;1.00
14057;DHT22;7103;54.300;10.180;2022-12-15T17:24:59;0.50;1.00
14057;DHT22;7103;54.300;10.180;2022-12-15T17:27:27;0.50;1.00
14057;DHT22;7103;54.300;10.180;2022-12-15T17:29:57;0.40;1.00
14057;DHT22;7103;54.300;10.180;2022-12-15T17:32:25;0.20;1.00
14057;DHT22;7103;54.300;10.180;2022-12-15T17:34:52;0.20;1.00
14057;DHT22;7103;54.300;10.180;2022-12-15T17:37:19;0.10;1.00
14057;DHT22;7103;54.300;10.180;2022-12-15T17:39:46;0.10;1.00
14057;DHT22;7103;54.300;10.180;2022-12-15T17:42:19;0.10;1.00
14057;DHT22;7103;54.300;10.180;2022-12-15T17:44:47;0.10;1.00
14057;DHT22;7103;54.300;10.180;2022-12-15T17:47:15;0.10;1.00
14057;DHT22;7103;54.300;10.180;2022-12-15T17:49:42;0.10;1.00
14057;DHT22;7103;54.300;10.180;2022-12-15T17:54:51;0.00;1.00
14057;DHT22;7103;54.300;10.180;2022-12-15T17:57:19;0.10;1.00
14057;DHT22;7103;54.300;10.180;2022-12-15T17:59:46;0.10;1.00
14057;DHT22;7103;54.300;10.180;2022-12-15T18:02:13;0.20;1.00
14057;DHT22;7103;54.300;10.180;2022-12-15T18:04:40;0.20;1.00
14057;DHT22;7103;54.300;10.180;2022-12-15T18:07:21;0.20;1.00
14057;DHT22;7103;54.300;10.180;2022-12-15T18:09:49;0.30;1.00
14057;DHT22;7103;54.300;10.180;2022-12-15T18:12:22;0.20;1.00
14057;DHT22;7103;54.300;10.180;2022-12-15T18:14:51;0.20;1.00
14057;DHT22;7103;54.300;10.180;2022-12-15T18:17:18;0.10;1.00
14057;DHT22;7103;54.300;10.180;2022-12-15T18:19:45;0.10;1.00
14057;DHT22;7103;54.300;10.180;2022-12-15T18:22:20;0.20;1.00
14057;DHT22;7103;54.300;10.180;2022-12-15T18:24:49;0.10;1.00
14057;DHT22;7103;54.300;10.180;2022-12-15T18:27:22;0.10;1.00
14057;DHT22;7103;54.300;10.180;2022-12-15T18:29:50;0.10;1.00
14057;DHT22;7103;54.300;10.180;2022-12-15T18:32:17;0.10;1.00
14057;DHT22;7103;54.300;10.180;2022-12-15T18:34:44;0.30;1.00
14057;DHT22;7103;54.300;10.180;2022-12-15T18:37:18;0.30;1.00
14057;DHT22;7103;54.300;10.180;2022-12-15T18:39:45;0.30;1.00
14057;DHT22;7103;54.300;10.180;2022-12-15T18:42:18;0.50;1.00
14057;DHT22;7103;54.300;10.180;2022-12-15T18:44:48;0.30;1.00
14057;DHT22;7103;54.300;10.180;2022-12-15T18:47:17;0.30;1.00
14057;DHT22;7103;54.300;10.180;2022-12-15T18:49:44;0.30;1.00
14057;DHT22;7103;54.300;10.180;2022-12-15T18:54:43;0.50;1.00